sensor_id;sensor_type;location;lat;lon;timestamp;pressure;altitude;pressure_sealevel;temperature;humidity
4528;BME280;62320;51.520;6.818;2023-02-23T00:06:24;100790.78;;;9.91;100.00
4528;BME280;62320;51.520;6.818;2023-02-23T00:16:26;100790.75;;;9.84;100.00
4528;BME280;62320;51.520;6.818;2023-02-23T00:26:30;100785.56;;;9.78;100.00
4528;BME280;62320;51.520;6.818;2023-02-23T00:36:35;100782.13;;;9.76;100.00
4528;BME280;62320;51.520;6.818;2023-02-23T00:46:36;100780.41;;;9.72;100.00
4528;BME280;62320;51.520;6.818;2023-02-23T00:56:39;100781.22;;;9.66;100.00
4528;BME280;62320;51.520;6.818;2023-02-23T01:06:41;100776.03;;;9.62;100.00
4528;BME280;62320;51.520;6.818;2023-02-23T01:16:43;100775.16;;;9.57;100.00
4528;BME280;62320;51.520;6.818;2023-02-23T01:26:45;100776.91;;;9.56;100.00
4528;BME280;62320;51.520;6.818;2023-02-23T01:36:46;100782.91;;;9.54;100.00
4528;BME280;62320;51.520;6.818;2023-02-23T01:46:48;100779.44;;;9.49;100.00
4528;BME280;62320;51.520;6.818;2023-02-23T01:56:52;100780.28;;;9.46;100.00
4528;BME280;62320;51.520;6.818;2023-02-23T02:07:02;100784.56;;;9.44;100.00
4528;BME280;62320;51.520;6.818;2023-02-23T02:27:57;100777.66;;;9.36;100.00
4528;BME280;62320;51.520;6.818;2023-02-23T02:48:16;100766.44;;;9.30;100.00
4528;BME280;62320;51.520;6.818;2023-02-23T02:58:21;100774.22;;;9.33;100.00
4528;BME280;62320;51.520;6.818;2023-02-23T03:08:38;100773.31;;;9.31;100.00
4528;BME280;62320;51.520;6.818;2023-02-23T03:29:40;100781.91;;;9.27;100.00
4528;BME280;62320;51.520;6.818;2023-02-23T03:40:27;100781.03;;;9.27;100.00
4528;BME280;62320;51.520;6.818;2023-02-23T03:50:52;100785.31;;;9.22;100.00
4528;BME280;62320;51.520;6.818;2023-02-23T04:01:14;100784.44;;;9.23;100.00
4528;BME280;62320;51.520;6.818;2023-02-23T04:11:44;100788.75;;;9.22;100.00
4528;BME280;62320;51.520;6.818;2023-02-23T04:22:05;100794.72;;;9.15;100.00
4528;BME280;62320;51.520;6.818;2023-02-23T04:32:11;100799.91;;;9.17;100.00
4528;BME280;62320;51.520;6.818;2023-02-23T04:42:13;100799.06;;;9.22;100.00
4528;BME280;62320;51.520;6.818;2023-02-23T04:52:15;100798.19;;;9.19;100.00
4528;BME280;62320;51.520;6.818;2023-02-23T05:02:17;100795.66;;;9.22;100.00
4528;BME280;62320;51.520;6.818;2023-02-23T05:12:18;100803.34;;;9.20;100.00
4528;BME280;62320;51.520;6.818;2023-02-23T05:22:21;100807.66;;;9.20;100.00
4528;BME280;62320;51.520;6.818;2023-02-23T05:32:22;100815.38;;;9.17;100.00
4528;BME280;62320;51.520;6.818;2023-02-23T05:42:24;100810.19;;;9.15;100.00
4528;BME280;62320;51.520;6.818;2023-02-23T05:52:26;100814.47;;;9.10;100.00
4528;BME280;62320;51.520;6.818;2023-02-23T06:02:27;100820.47;;;9.11;100.00
4528;BME280;62320;51.520;6.818;2023-02-23T06:12:29;100822.22;;;9.12;100.00
4528;BME280;62320;51.520;6.818;2023-02-23T06:22:31;100832.50;;;9.07;100.00
4528;BME280;62320;51.520;6.818;2023-02-23T06:32:32;100844.50;;;8.99;100.00
4528;BME280;62320;51.520;6.818;2023-02-23T06:42:34;100853.03;;;8.92;100.00
4528;BME280;62320;51.520;6.818;2023-02-23T06:52:38;100870.22;;;8.92;100.00
4528;BME280;62320;51.520;6.818;2023-02-23T07:02:40;100877.03;;;8.87;100.00
4528;BME280;62320;51.520;6.818;2023-02-23T07:12:42;100895.00;;;8.76;100.00
4528;BME280;62320;51.520;6.818;2023-02-23T07:22:43;100897.53;;;8.75;100.00
4528;BME280;62320;51.520;6.818;2023-02-23T07:32:45;100907.78;;;8.66;100.00
4528;BME280;62320;51.520;6.818;2023-02-23T07:42:46;100917.22;;;8.63;100.00
4528;BME280;62320;51.520;6.818;2023-02-23T07:52:49;100922.38;;;8.63;100.00
4528;BME280;62320;51.520;6.818;2023-02-23T08:02:50;100933.50;;;8.59;100.00
4528;BME280;62320;51.520;6.818;2023-02-23T08:12:53;100946.38;;;8.61;100.00
4528;BME280;62320;51.520;6.818;2023-02-23T08:22:56;100954.16;;;8.63;100.00
4528;BME280;62320;51.520;6.818;2023-02-23T08:32:58;100961.06;;;8.65;100.00
4528;BME280;62320;51.520;6.818;2023-02-23T08:43:01;100963.59;;;8.63;100.00
4528;BME280;62320;51.520;6.818;2023-02-23T08:53:03;100967.81;;;8.55;100.00
4528;BME280;62320;51.520;6.818;2023-02-23T09:03:05;100977.38;;;8.66;100.00
4528;BME280;62320;51.520;6.818;2023-02-23T09:13:07;100983.41;;;8.66;100.00
4528;BME280;62320;51.520;6.818;2023-02-23T09:23:10;100984.34;;;8.74;100.00
4528;BME280;62320;51.520;6.818;2023-02-23T09:33:12;100994.72;;;8.82;100.00
4528;BME280;62320;51.520;6.818;2023-02-23T10:03:38;101032.66;;;8.90;100.00
4528;BME280;62320;51.520;6.818;2023-02-23T10:23:53;101048.97;;;8.91;100.00
4528;BME280;62320;51.520;6.818;2023-02-23T10:33:59;101052.47;;;8.94;100.00
4528;BME280;62320;51.520;6.818;2023-02-23T10:44:04;101057.69;;;9.00;100.00
4528;BME280;62320;51.520;6.818;2023-02-23T10:54:50;101054.19;;;8.95;100.00
4528;BME280;62320;51.520;6.818;2023-02-23T11:04:55;101062.75;;;8.90;100.00
4528;BME280;62320;51.520;6.818;2023-02-23T11:14:57;101065.44;;;9.02;100.00
4528;BME280;62320;51.520;6.818;2023-02-23T11:25:00;101067.09;;;8.95;100.00
4528;BME280;62320;51.520;6.818;2023-02-23T11:35:12;101052.59;;;9.03;100.00
4528;BME280;62320;51.520;6.818;2023-02-23T11:45:16;101053.47;;;9.07;100.00
4528;BME280;62320;51.520;6.818;2023-02-23T11:55:20;101059.44;;;9.03;100.00
4528;BME280;62320;51.520;6.818;2023-02-23T12:05:32;101053.31;;;8.93;100.00
4528;BME280;62320;51.520;6.818;2023-02-23T12:15:39;101034.53;;;9.05;100.00
4528;BME280;62320;51.520;6.818;2023-02-23T12:26:20;101036.31;;;9.12;100.00
4528;BME280;62320;51.520;6.818;2023-02-23T12:46:43;101048.44;;;9.20;100.00
4528;BME280;62320;51.520;6.818;2023-02-23T12:57:13;101045.81;;;9.13;100.00
4528;BME280;62320;51.520;6.818;2023-02-23T13:07:23;101047.53;;;9.14;100.00
4528;BME280;62320;51.520;6.818;2023-02-23T13:17:32;101040.69;;;9.19;100.00
4528;BME280;62320;51.520;6.818;2023-02-23T13:27:42;101051.75;;;9.09;100.00
4528;BME280;62320;51.520;6.818;2023-02-23T13:48:58;101048.44;;;9.17;100.00
4528;BME280;62320;51.520;6.818;2023-02-23T13:59:06;101042.38;;;9.15;100.00
4528;BME280;62320;51.520;6.818;2023-02-23T14:09:17;101044.19;;;9.25;100.00
4528;BME280;62320;51.520;6.818;2023-02-23T14:40:12;101058.03;;;9.30;100.00
4528;BME280;62320;51.520;6.818;2023-02-23T14:50:26;101052.91;;;9.35;100.00
4528;BME280;62320;51.520;6.818;2023-02-23T15:00:31;101046.00;;;9.32;100.00
4528;BME280;62320;51.520;6.818;2023-02-23T15:10:41;101057.16;;;9.28;100.00
4528;BME280;62320;51.520;6.818;2023-02-23T15:20:43;101059.72;;;9.28;100.00
4528;BME280;62320;51.520;6.818;2023-02-23T15:30:47;101066.63;;;9.32;100.00
4528;BME280;62320;51.520;6.818;2023-02-23T15:40:53;101055.41;;;9.27;100.00
4528;BME280;62320;51.520;6.818;2023-02-23T15:50:57;101066.53;;;9.23;100.00
4528;BME280;62320;51.520;6.818;2023-02-23T16:01:09;101073.41;;;9.21;100.00
4528;BME280;62320;51.520;6.818;2023-02-23T16:11:14;101070.53;;;8.96;100.00
4528;BME280;62320;51.520;6.818;2023-02-23T16:21:20;101068.72;;;8.89;100.00
4528;BME280;62320;51.520;6.818;2023-02-23T16:31:38;101070.28;;;8.73;100.00
4528;BME280;62320;51.520;6.818;2023-02-23T16:41:43;101066.75;;;8.67;100.00
4528;BME280;62320;51.520;6.818;2023-02-23T16:51:49;101066.81;;;8.71;100.00
4528;BME280;62320;51.520;6.818;2023-02-23T17:01:51;101079.53;;;8.56;100.00
4528;BME280;62320;51.520;6.818;2023-02-23T17:11:52;101090.81;;;8.67;100.00
4528;BME280;62320;51.520;6.818;2023-02-23T17:21:56;101092.53;;;8.67;100.00
4528;BME280;62320;51.520;6.818;2023-02-23T17:31:58;101108.00;;;8.65;100.00
4528;BME280;62320;51.520;6.818;2023-02-23T17:42:02;101101.91;;;8.61;100.00
4528;BME280;62320;51.520;6.818;2023-02-23T17:52:04;101105.38;;;8.63;100.00
4528;BME280;62320;51.520;6.818;2023-02-23T18:02:07;101113.09;;;8.63;100.00
4528;BME280;62320;51.520;6.818;2023-02-23T18:12:13;101114.75;;;8.57;100.00
4528;BME280;62320;51.520;6.818;2023-02-23T18:22:14;101110.47;;;8.57;100.00
4528;BME280;62320;51.520;6.818;2023-02-23T18:32:16;101112.91;;;8.48;100.00
4528;BME280;62320;51.520;6.818;2023-02-23T18:42:19;101118.94;;;8.50;100.00
4528;BME280;62320;51.520;6.818;2023-02-23T18:52:20;101113.72;;;8.46;100.00
4528;BME280;62320;51.520;6.818;2023-02-23T19:02:22;101106.84;;;8.45;100.00
4528;BME280;62320;51.520;6.818;2023-02-23T19:12:25;101109.38;;;8.40;100.00
4528;BME280;62320;51.520;6.818;2023-02-23T19:22:28;101105.84;;;8.35;100.00
4528;BME280;62320;51.520;6.818;2023-02-23T19:32:29;101109.25;;;8.33;100.00
4528;BME280;62320;51.520;6.818;2023-02-23T19:42:31;101107.50;;;8.32;100.00
4528;BME280;62320;51.520;6.818;2023-02-23T19:52:33;101108.31;;;8.29;100.00
4528;BME280;62320;51.520;6.818;2023-02-23T20:02:35;101105.72;;;8.28;100.00
4528;BME280;62320;51.520;6.818;2023-02-23T20:12:43;101111.75;;;8.28;100.00
4528;BME280;62320;51.520;6.818;2023-02-23T20:22:44;101126.09;;;8.14;100.00
4528;BME280;62320;51.520;6.818;2023-02-23T20:32:47;101147.72;;;7.73;100.00
4528;BME280;62320;51.520;6.818;2023-02-23T20:42:50;101146.50;;;7.53;100.00
4528;BME280;62320;51.520;6.818;2023-02-23T20:52:51;101145.28;;;6.91;100.00
4528;BME280;62320;51.520;6.818;2023-02-23T21:02:53;101138.34;;;6.87;100.00
4528;BME280;62320;51.520;6.818;2023-02-23T21:12:59;101135.66;;;6.82;100.00
4528;BME280;62320;51.520;6.818;2023-02-23T21:23:00;101140.94;;;6.88;100.00
4528;BME280;62320;51.520;6.818;2023-02-23T21:33:04;101140.59;;;6.72;100.00
4528;BME280;62320;51.520;6.818;2023-02-23T21:43:06;101128.13;;;6.50;100.00
4528;BME280;62320;51.520;6.818;2023-02-23T21:53:09;101125.59;;;6.51;100.00
4528;BME280;62320;51.520;6.818;2023-02-23T22:03:13;101123.00;;;6.51;100.00
4528;BME280;62320;51.520;6.818;2023-02-23T22:13:14;101112.06;;;6.60;100.00
4528;BME280;62320;51.520;6.818;2023-02-23T22:23:16;101111.78;;;6.47;100.00
4528;BME280;62320;51.520;6.818;2023-02-23T22:33:18;101113.44;;;6.44;100.00
4528;BME280;62320;51.520;6.818;2023-02-23T22:43:20;101119.06;;;6.29;100.00
4528;BME280;62320;51.520;6.818;2023-02-23T22:53:23;101117.66;;;6.05;100.00
4528;BME280;62320;51.520;6.818;2023-02-23T23:03:24;101106.75;;;5.79;100.00
4528;BME280;62320;51.520;6.818;2023-02-23T23:13:27;101110.59;;;5.95;100.00
4528;BME280;62320;51.520;6.818;2023-02-23T23:23:28;101106.75;;;5.79;100.00
4528;BME280;62320;51.520;6.818;2023-02-23T23:33:30;101101.56;;;5.77;100.00
4528;BME280;62320;51.520;6.818;2023-02-23T23:43:31;101104.63;;;5.63;100.00
4528;BME280;62320;51.520;6.818;2023-02-23T23:53:37;101087.28;;;5.54;100.00
